KMOP/MOP METAR and TAF weather

Enter ICAO airport designator
Station Type Date Time Source
KMOP METAR 2020/04/07 15:36 UTC NOAA

KMOP 071536Z AUTO 13006KT 10SM OVC015 09/08 A2981 RMK AO2 T00860075


Station Type Date Time Source
KMOP Decoded METAR 2020/04/07 15:36 UTC NOAA

Mount Pleasant, Mount Pleasant Municipal Airport, MI, United States (KMOP) 43-37N 84-44W
Apr 07, 2020 - 11:36 AM EDT / 2020.04.07 1536 UTC
Wind: from the SE (130 degrees) at 7 MPH (6 KT):0
Visibility: 10 mile(s):0
Sky conditions: overcast
Temperature: 47.5 F (8.6 C)
Dew Point: 45.5 F (7.5 C)
Relative Humidity: 92%
Pressure (altimeter): 29.81 in. Hg (1009 hPa)
ob: KMOP 071536Z AUTO 13006KT 10SM OVC015 09/08 A2981 RMK AO2 T00860075
cycle: 15

Station Type Date Time Source
KMOP TAF UTC NOAA

Error!

Example: see airport list